Time;durP1;ratioP1;P1;durP2;ratioP2;P2;SDS_P1;SDS_P2;PMS_P1;PMS_P2;Temp;Humidity;BMP_temperature;BMP_pressure;BME280_temperature;BME280_humidity;BME280_pressure;Samples;Min_cycle;Max_cycle;Signal;HPM_P1;HPM_P2
2023/11/25 00:00:29;;;;;;;6.00;4.03;;;;;;;9.70;81.22;97451.75;6172602;23;20508;-92
2023/11/25 00:02:54;;;;;;;6.13;4.18;;;;;;;9.78;80.78;97440.25;6172486;23;19996;-91
2023/11/25 00:05:20;;;;;;;5.95;3.90;;;;;;;9.63;81.62;97424.50;6172380;23;20014;-91
2023/11/25 00:07:46;;;;;;;5.55;4.00;;;;;;;9.67;81.47;97449.66;6172004;23;20062;-92
2023/11/25 00:10:12;;;;;;;7.30;4.22;;;;;;;9.64;81.46;97429.59;6172848;23;20008;-91
2023/11/25 00:12:38;;;;;;;5.90;3.55;;;;;;;9.64;81.40;97431.50;6172018;23;20008;-91
2023/11/25 00:15:04;;;;;;;8.82;3.60;;;;;;;9.60;81.22;97415.19;6173960;23;20012;-90
2023/11/25 00:17:30;;;;;;;4.65;3.80;;;;;;;9.71;81.52;97442.56;6197375;23;20000;-92
2023/11/25 00:19:56;;;;;;;5.75;3.60;;;;;;;9.57;81.21;97421.19;6173725;23;19996;-90
2023/11/25 00:22:22;;;;;;;7.13;3.67;;;;;;;9.39;82.25;97400.72;6172933;23;20004;-93
2023/11/25 00:24:48;;;;;;;5.28;3.55;;;;;;;9.51;82.14;97412.47;6172841;23;20018;-91
2023/11/25 00:27:14;;;;;;;4.47;3.47;;;;;;;9.49;81.35;97406.63;6173067;23;20008;-93
2023/11/25 00:29:40;;;;;;;6.20;3.92;;;;;;;9.48;80.82;97388.94;6198839;23;20000;-90
2023/11/25 00:32:06;;;;;;;7.93;3.78;;;;;;;9.55;81.22;97417.25;6172214;23;19992;-89
2023/11/25 00:34:31;;;;;;;5.43;3.90;;;;;;;9.60;80.60;97423.25;6196636;23;20035;-91
2023/11/25 00:36:57;;;;;;;5.47;3.47;;;;;;;9.66;80.14;97430.06;6173478;23;20004;-91
2023/11/25 00:39:23;;;;;;;3.95;3.40;;;;;;;9.69;80.16;97428.66;6172730;23;20019;-89
2023/11/25 00:41:49;;;;;;;3.30;2.15;;;;;;;9.64;78.88;97437.66;6172709;23;20000;-92
2023/11/25 00:44:15;;;;;;;3.60;2.42;;;;;;;9.53;78.21;97414.84;6172624;23;20015;-92
2023/11/25 00:46:40;;;;;;;3.67;2.10;;;;;;;9.49;77.57;97403.13;6171445;23;20038;-92
2023/11/25 00:49:08;;;;;;;3.00;1.90;;;;;;;9.53;77.79;97406.00;6173460;23;20032;-91
2023/11/25 00:51:33;;;;;;;3.95;2.30;;;;;;;9.35;78.27;97379.06;6173092;23;20030;-92
2023/11/25 00:53:59;;;;;;;3.28;2.33;;;;;;;9.47;77.69;97375.78;6195786;23;20099;-92
2023/11/25 00:56:25;;;;;;;5.05;2.20;;;;;;;9.59;78.02;97397.50;6174948;23;20000;-92
2023/11/25 00:58:51;;;;;;;3.63;2.25;;;;;;;9.65;78.18;97398.94;6172787;23;20012;-92
2023/11/25 01:01:16;;;;;;;5.50;2.92;;;;;;;9.43;78.81;97378.31;6172545;23;20007;-92
2023/11/25 01:03:42;;;;;;;5.47;3.05;;;;;;;9.26;79.75;97368.28;6197305;23;19980;-93
2023/11/25 01:06:08;;;;;;;7.80;3.30;;;;;;;9.37;80.24;97382.22;6172423;23;20070;-91
2023/11/25 01:08:34;;;;;;;5.47;3.45;;;;;;;9.53;80.17;97385.31;6196998;23;19996;-92
2023/11/25 01:10:59;;;;;;;6.25;3.22;;;;;;;9.38;80.16;97359.66;6171657;23;20000;-90
2023/11/25 01:13:28;;;;;;;3.15;2.63;;;;;;;9.48;80.07;97347.81;6197563;23;20008;-91
2023/11/25 01:15:54;;;;;;;4.97;2.88;;;;;;;9.45;79.69;97338.50;6172788;23;20016;-94
2023/11/25 01:18:20;;;;;;;4.03;2.60;;;;;;;9.41;80.13;97329.47;6175035;23;20034;-93
2023/11/25 01:20:46;;;;;;;5.60;2.90;;;;;;;9.45;79.83;97325.06;6200028;23;20008;-94
2023/11/25 01:23:12;;;;;;;4.30;2.60;;;;;;;9.56;79.05;97328.25;6174651;23;20075;-94
2023/11/25 01:25:38;;;;;;;3.55;2.42;;;;;;;9.34;79.38;97302.28;6198545;23;20012;-93
2023/11/25 01:28:03;;;;;;;3.83;2.72;;;;;;;9.35;79.23;97321.88;6174885;23;20083;-94
2023/11/25 01:30:33;;;;;;;3.60;2.67;;;;;;;9.30;79.55;97307.47;6175340;23;19999;-93
2023/11/25 01:33:01;;;;;;;3.05;2.22;;;;;;;9.48;78.16;97310.22;6176363;23;20027;-93
2023/11/25 01:35:27;;;;;;;2.20;1.75;;;;;;;9.51;77.95;97312.28;6200580;23;20023;-89
2023/11/25 01:37:54;;;;;;;3.38;2.40;;;;;;;9.50;78.41;97318.75;6174996;23;19996;-93
2023/11/25 01:40:22;;;;;;;4.03;2.35;;;;;;;9.52;77.96;97316.53;6174469;23;20000;-94
2023/11/25 01:42:49;;;;;;;4.78;2.10;;;;;;;9.59;77.82;97310.72;6175221;23;20082;-94
2023/11/25 01:45:14;;;;;;;2.85;2.15;;;;;;;9.40;77.76;97282.25;6198968;23;20568;-94
2023/11/25 01:47:40;;;;;;;2.38;1.98;;;;;;;9.35;77.96;97305.75;6173469;23;20004;-91
2023/11/25 01:50:06;;;;;;;2.45;1.80;;;;;;;9.43;77.71;97311.16;6174093;23;20007;-93
2023/11/25 01:52:34;;;;;;;2.80;2.05;;;;;;;9.53;77.40;97314.66;6174079;23;20004;-95
2023/11/25 01:55:01;;;;;;;3.78;2.28;;;;;;;9.43;78.08;97313.06;6199209;23;20449;-94
2023/11/25 01:57:28;;;;;;;3.75;1.90;;;;;;;9.41;78.36;97317.94;6175177;23;20000;-94
2023/11/25 01:59:53;;;;;;;2.05;1.60;;;;;;;9.47;78.08;97314.78;6199548;23;20024;-93
2023/11/25 02:02:20;;;;;;;2.08;1.45;;;;;;;9.41;76.70;97312.56;6175107;23;20007;-94
2023/11/25 02:04:46;;;;;;;2.58;2.00;;;;;;;9.17;78.14;97289.59;6174082;23;20067;-94
2023/11/25 02:07:11;;;;;;;4.65;1.98;;;;;;;9.28;78.44;97282.81;6174279;23;20420;-94
2023/11/25 02:09:37;;;;;;;5.15;2.40;;;;;;;9.29;78.56;97267.50;6174428;23;20008;-92
2023/11/25 02:12:04;;;;;;;2.53;2.03;;;;;;;9.30;78.66;97277.16;6175443;23;20059;-94
2023/11/25 02:14:30;;;;;;;2.33;1.50;;;;;;;9.15;77.01;97245.34;6175649;23;20016;-94
2023/11/25 02:16:56;;;;;;;2.88;1.75;;;;;;;9.10;77.76;97252.44;6175561;23;20011;-93
2023/11/25 02:19:21;;;;;;;4.88;1.85;;;;;;;9.09;77.59;97242.81;6174444;23;20007;-92
2023/11/25 02:21:47;;;;;;;5.95;2.47;;;;;;;9.05;78.50;97224.97;6174108;23;20000;-91
2023/11/25 02:24:13;;;;;;;6.05;2.28;;;;;;;9.05;79.78;97235.69;6198741;23;20000;-93
2023/11/25 02:26:39;;;;;;;3.90;1.70;;;;;;;9.14;79.10;97239.19;6174148;23;20007;-93
2023/11/25 02:29:05;;;;;;;3.70;1.67;;;;;;;9.16;79.47;97228.16;6174471;23;20007;-92
2023/11/25 02:31:32;;;;;;;2.42;1.80;;;;;;;9.14;78.87;97209.66;6199094;23;20327;-93
2023/11/25 02:33:58;;;;;;;6.38;2.25;;;;;;;9.16;79.77;97236.19;6174307;23;20092;-94
2023/11/25 02:36:24;;;;;;;4.45;2.05;;;;;;;9.06;80.03;97221.94;6199061;23;19996;-95
2023/11/25 02:38:49;;;;;;;3.33;1.95;;;;;;;9.19;80.47;97239.03;6174169;23;20058;-92
2023/11/25 02:41:15;;;;;;;2.97;2.47;;;;;;;9.15;81.03;97229.22;6175339;23;20007;-94
2023/11/25 02:43:41;;;;;;;4.07;2.50;;;;;;;9.15;81.16;97213.94;6173780;23;20022;-94
2023/11/25 02:46:07;;;;;;;3.42;2.33;;;;;;;8.93;81.33;97201.41;6197000;23;20040;-94
2023/11/25 02:48:35;;;;;;;4.22;2.72;;;;;;;9.02;81.65;97204.88;6173898;23;20004;-94
2023/11/25 02:51:01;;;;;;;4.13;2.60;;;;;;;9.06;81.99;97205.84;6174533;23;20078;-94
2023/11/25 02:53:26;;;;;;;4.10;2.83;;;;;;;8.93;82.05;97185.28;6174121;23;20031;-93
2023/11/25 02:55:52;;;;;;;4.85;3.25;;;;;;;9.04;82.12;97202.69;6174354;23;20036;-93
2023/11/25 02:58:22;;;;;;;3.75;3.15;;;;;;;9.04;82.54;97193.84;6175192;23;20015;-93
2023/11/25 03:00:49;;;;;;;4.25;3.05;;;;;;;8.89;83.10;97171.69;6176868;23;20000;-93
2023/11/25 03:03:17;;;;;;;6.57;2.97;;;;;;;9.03;82.33;97192.28;6176266;23;20007;-93
2023/11/25 03:05:47;;;;;;;5.75;3.53;;;;;;;9.02;82.12;97171.88;6177738;23;20419;-93
2023/11/25 03:08:13;;;;;;;5.10;3.30;;;;;;;9.16;81.99;97185.97;6178165;23;19996;-93
2023/11/25 03:10:41;;;;;;;4.57;3.20;;;;;;;9.20;81.76;97164.66;6176007;23;20012;-93
2023/11/25 03:13:09;;;;;;;5.18;3.15;;;;;;;9.28;81.41;97185.38;6177564;23;20007;-93
2023/11/25 03:15:35;;;;;;;4.05;2.80;;;;;;;9.08;81.33;97159.91;6195844;23;20021;-94
2023/11/25 03:18:01;;;;;;;3.65;2.63;;;;;;;9.15;81.16;97179.03;6171783;23;20324;-94
2023/11/25 03:20:27;;;;;;;5.35;3.10;;;;;;;9.08;81.18;97163.38;6172200;23;20031;-93
2023/11/25 03:22:53;;;;;;;3.38;2.67;;;;;;;9.00;81.61;97148.03;6171471;23;20000;-95
2023/11/25 03:25:21;;;;;;;2.92;2.35;;;;;;;9.12;81.68;97150.13;6171420;23;20005;-94
2023/11/25 03:27:47;;;;;;;3.47;2.50;;;;;;;9.29;81.31;97173.50;6172076;23;19996;-93
2023/11/25 03:30:13;;;;;;;3.50;2.72;;;;;;;8.96;81.26;97135.56;6171878;23;20003;-94
2023/11/25 03:32:38;;;;;;;3.22;2.17;;;;;;;9.11;81.72;97156.59;6196428;23;20359;-92
2023/11/25 03:35:06;;;;;;;2.80;1.98;;;;;;;9.10;81.54;97153.09;6169746;23;20415;-93
2023/11/25 03:37:32;;;;;;;2.58;1.60;;;;;;;9.06;80.75;97132.56;6172005;23;20062;-94
2023/11/25 03:39:58;;;;;;;3.05;2.17;;;;;;;9.20;80.38;97161.97;6172430;23;20066;-94
2023/11/25 03:42:23;;;;;;;3.42;2.05;;;;;;;9.06;80.58;97143.31;6171289;23;19997;-93
2023/11/25 03:44:50;;;;;;;2.40;1.70;;;;;;;8.98;80.02;97134.13;6170260;23;20016;-93
2023/11/25 03:47:15;;;;;;;2.65;1.60;;;;;;;9.03;80.47;97138.59;6170329;23;20066;-94
2023/11/25 03:49:41;;;;;;;2.78;1.67;;;;;;;8.95;80.15;97125.94;6171926;23;20008;-94
2023/11/25 03:52:07;;;;;;;2.45;1.85;;;;;;;8.93;79.69;97128.94;6170947;23;20324;-93
2023/11/25 03:54:35;;;;;;;3.00;1.60;;;;;;;8.87;79.03;97117.53;6170006;23;20084;-92
2023/11/25 03:57:01;;;;;;;2.60;1.80;;;;;;;8.81;80.17;97109.97;6196976;23;20483;-94
2023/11/25 03:59:30;;;;;;;2.70;1.92;;;;;;;8.82;80.57;97123.06;6170268;23;20005;-93
2023/11/25 04:01:55;;;;;;;1.52;1.30;;;;;;;8.77;80.80;97111.69;6172290;23;20079;-92
2023/11/25 04:04:21;;;;;;;4.28;2.08;;;;;;;8.68;80.89;97114.34;6194640;23;20015;-93
2023/11/25 04:06:47;;;;;;;3.58;1.63;;;;;;;8.73;81.68;97138.34;6169926;23;20005;-94
2023/11/25 04:09:13;;;;;;;3.35;1.80;;;;;;;8.96;81.42;97155.13;6169836;23;20020;-93
2023/11/25 04:11:42;;;;;;;3.33;1.85;;;;;;;8.93;80.92;97122.78;6169654;23;20577;-93
2023/11/25 04:14:08;;;;;;;3.50;1.77;;;;;;;8.95;80.93;97113.31;6171083;23;20027;-94
2023/11/25 04:16:33;;;;;;;2.70;1.73;;;;;;;8.78;81.78;97097.97;6170076;23;20403;-93
2023/11/25 04:18:59;;;;;;;3.05;2.08;;;;;;;9.07;81.48;97121.53;6170256;23;20008;-93
2023/11/25 04:21:26;;;;;;;4.15;2.17;;;;;;;8.94;80.57;97105.56;6197280;23;20000;-94
2023/11/25 04:23:53;;;;;;;2.72;2.00;;;;;;;8.93;79.87;97099.41;6196643;23;20001;-93
2023/11/25 04:26:19;;;;;;;3.35;2.08;;;;;;;9.01;80.45;97111.28;6171076;23;20012;-94
2023/11/25 04:28:46;;;;;;;2.17;1.65;;;;;;;8.93;80.09;97099.41;6196110;23;20001;-94
2023/11/25 04:31:12;;;;;;;2.00;1.55;;;;;;;8.94;79.94;97095.59;6195504;23;20004;-94
2023/11/25 04:33:37;;;;;;;2.53;1.50;;;;;;;8.94;81.03;97108.25;6170974;23;20001;-94
2023/11/25 04:36:03;;;;;;;2.65;1.33;;;;;;;8.95;79.10;97101.78;6168665;23;19997;-94
2023/11/25 04:38:29;;;;;;;1.40;1.13;;;;;;;9.13;79.25;97140.16;6195251;23;20004;-94
2023/11/25 04:40:55;;;;;;;2.15;1.45;;;;;;;8.96;79.56;97112.19;6170552;23;19997;-94
2023/11/25 04:43:21;;;;;;;2.10;1.45;;;;;;;8.88;79.47;97096.84;6170024;23;20052;-94
2023/11/25 04:45:46;;;;;;;1.88;1.40;;;;;;;8.92;80.47;97100.50;6193472;23;20355;-94
2023/11/25 04:48:12;;;;;;;2.00;1.30;;;;;;;8.92;79.51;97092.44;6170092;23;20005;-94
2023/11/25 04:50:39;;;;;;;1.83;1.48;;;;;;;8.90;79.90;97102.69;6195403;23;20000;-94
2023/11/25 04:53:05;;;;;;;1.02;0.90;;;;;;;8.92;78.59;97111.22;6170114;23;20060;-94
2023/11/25 04:55:32;;;;;;;1.67;1.02;;;;;;;8.95;78.87;97110.63;6170959;23;20067;-93
2023/11/25 04:57:58;;;;;;;0.90;0.90;;;;;;;8.80;79.88;97121.78;6194065;23;20077;-94
2023/11/25 05:00:23;;;;;;;1.77;1.10;;;;;;;8.97;80.03;97159.41;6169401;23;19996;-93
2023/11/25 05:02:52;;;;;;;1.10;0.90;;;;;;;8.82;79.00;97124.94;6170318;23;20039;-93
2023/11/25 05:05:21;;;;;;;1.33;0.88;;;;;;;8.82;78.79;97098.09;6169857;23;20004;-93
2023/11/25 05:07:47;;;;;;;1.13;0.90;;;;;;;8.68;79.46;97104.41;6171707;23;20379;-93
2023/11/25 05:10:14;;;;;;;1.27;1.15;;;;;;;8.90;79.15;97111.56;6169698;23;20056;-94
2023/11/25 05:12:44;;;;;;;1.80;1.08;;;;;;;8.95;80.49;97120.56;6169739;23;20031;-94
2023/11/25 05:15:11;;;;;;;2.28;1.67;;;;;;;8.80;80.02;97098.44;6197117;23;20016;-93
2023/11/25 05:17:38;;;;;;;2.60;1.75;;;;;;;8.88;80.85;97115.66;6194483;23;20008;-92
2023/11/25 05:20:05;;;;;;;2.47;1.75;;;;;;;8.79;81.16;97104.91;6169419;23;20004;-93
2023/11/25 05:22:30;;;;;;;2.00;1.60;;;;;;;8.75;80.93;97117.34;6169742;23;20324;-92
2023/11/25 05:24:56;;;;;;;2.20;1.65;;;;;;;8.70;80.57;97102.19;6192918;23;20011;-93
2023/11/25 05:27:22;;;;;;;2.25;1.60;;;;;;;8.70;81.19;97104.88;6169619;23;20030;-94
2023/11/25 05:29:49;;;;;;;2.80;1.95;;;;;;;8.86;80.34;97121.34;6169712;23;20000;-93
2023/11/25 05:32:15;;;;;;;2.08;1.65;;;;;;;8.89;80.49;97128.75;6170401;23;20066;-95
2023/11/25 05:34:41;;;;;;;2.15;1.50;;;;;;;8.77;80.05;97096.38;6169124;23;20383;-93
2023/11/25 05:37:08;;;;;;;1.05;0.95;;;;;;;8.79;80.38;97101.44;6169360;23;20427;-92
2023/11/25 05:39:36;;;;;;;1.50;1.15;;;;;;;8.40;81.23;97095.75;6195658;23;20489;-92
2023/11/25 05:42:02;;;;;;;1.50;1.10;;;;;;;8.54;80.85;97103.72;6169346;23;20394;-94
2023/11/25 05:44:29;;;;;;;1.55;1.30;;;;;;;8.52;80.53;97105.94;6193590;23;20367;-94
2023/11/25 05:46:56;;;;;;;1.55;1.20;;;;;;;8.36;80.16;97080.59;6170165;23;20332;-94
2023/11/25 05:49:22;;;;;;;1.40;1.10;;;;;;;8.54;80.59;97109.09;6171000;23;19997;-94
2023/11/25 05:51:48;;;;;;;1.65;1.10;;;;;;;8.27;81.08;97088.63;6168767;23;20549;-94
2023/11/25 05:54:14;;;;;;;1.20;1.05;;;;;;;8.14;81.63;97089.53;6170469;23;20016;-93
2023/11/25 05:56:40;;;;;;;2.55;1.00;;;;;;;8.27;81.65;97100.13;6193803;23;20005;-94
2023/11/25 05:59:08;;;;;;;1.27;0.93;;;;;;;8.42;81.17;97111.56;6170800;23;20005;-94
2023/11/25 06:01:35;;;;;;;1.35;0.93;;;;;;;8.42;81.46;97111.56;6196145;23;20004;-92
2023/11/25 06:04:00;;;;;;;1.58;0.95;;;;;;;8.20;81.00;97086.41;6195900;23;20004;-93
2023/11/25 06:06:26;;;;;;;1.38;1.00;;;;;;;8.28;80.71;97107.09;6172655;23;20015;-93
2023/11/25 06:08:52;;;;;;;1.40;1.10;;;;;;;8.34;81.53;97136.44;6171332;23;20016;-92
2023/11/25 06:11:26;;;;;;;1.60;1.02;;;;;;;8.28;81.31;97119.72;6171757;23;20015;-93
2023/11/25 06:13:53;;;;;;;1.58;1.02;;;;;;;8.10;81.14;97100.06;6173535;23;20012;-94
2023/11/25 06:16:19;;;;;;;3.47;1.33;;;;;;;8.18;81.03;97099.31;6174835;23;20012;-93
2023/11/25 06:18:44;;;;;;;2.38;1.30;;;;;;;8.03;81.71;97094.34;6175214;23;19999;-94
2023/11/25 06:21:12;;;;;;;1.20;1.10;;;;;;;8.08;81.98;97108.41;6175943;23;20000;-94
2023/11/25 06:23:38;;;;;;;2.42;1.20;;;;;;;8.17;82.21;97111.13;6174401;23;19996;-93
2023/11/25 06:26:06;;;;;;;1.55;1.25;;;;;;;8.02;81.37;97074.00;6174965;23;20008;-95
2023/11/25 06:28:31;;;;;;;1.88;1.30;;;;;;;8.14;82.41;97110.97;6174789;23;20087;-95
2023/11/25 06:30:57;;;;;;;2.20;1.42;;;;;;;8.01;82.02;97096.53;6172551;23;20007;-94
2023/11/25 06:33:26;;;;;;;1.98;1.30;;;;;;;8.19;81.57;97114.28;6175417;23;20027;-95
2023/11/25 06:35:55;;;;;;;1.73;1.30;;;;;;;8.15;81.84;97125.94;6200058;23;20091;-93
2023/11/25 06:38:20;;;;;;;2.45;1.60;;;;;;;8.18;81.69;97142.19;6176416;23;20004;-94
2023/11/25 06:40:47;;;;;;;4.30;2.10;;;;;;;8.22;81.29;97135.13;6176692;23;20019;-94
2023/11/25 06:43:12;;;;;;;3.28;2.08;;;;;;;8.18;81.24;97133.38;6175468;23;20065;-94
2023/11/25 06:45:40;;;;;;;3.08;1.60;;;;;;;8.19;81.61;97138.41;6175743;23;20063;-93
2023/11/25 06:48:07;;;;;;;2.53;1.40;;;;;;;8.15;80.62;97131.31;6177490;23;20020;-94
2023/11/25 06:50:33;;;;;;;1.73;1.45;;;;;;;8.19;80.82;97133.06;6176921;23;20008;-93
2023/11/25 06:52:59;;;;;;;1.75;1.25;;;;;;;8.02;80.92;97131.06;6176085;23;20004;-93
2023/11/25 06:55:24;;;;;;;2.80;1.38;;;;;;;8.00;81.04;97121.75;6177171;23;20008;-94
2023/11/25 06:57:50;;;;;;;3.88;1.50;;;;;;;8.04;81.93;97147.63;6175517;23;20015;-94
2023/11/25 07:00:16;;;;;;;4.13;2.00;;;;;;;7.98;82.07;97140.03;6176974;23;20007;-94
2023/11/25 07:02:42;;;;;;;1.90;1.30;;;;;;;7.84;82.17;97138.22;6200492;23;20004;-93
2023/11/25 07:05:08;;;;;;;2.40;1.30;;;;;;;7.88;81.99;97146.44;6200331;23;20024;-94
2023/11/25 07:07:35;;;;;;;18.17;8.95;;;;;;;7.73;82.48;97123.50;6201191;23;20020;-92
2023/11/25 07:10:01;;;;;;;3.67;2.30;;;;;;;7.84;81.36;97124.03;6201268;23;20030;-95
2023/11/25 07:12:26;;;;;;;7.80;6.38;;;;;;;7.76;81.69;97122.91;6176295;23;20016;-94
2023/11/25 07:14:58;;;;;;;1.80;1.20;;;;;;;7.93;81.95;97164.25;6174599;23;20024;-96
2023/11/25 07:17:24;;;;;;;1.60;1.10;;;;;;;7.76;81.84;97130.94;6248781;23;20003;-94
2023/11/25 07:19:49;;;;;;;2.15;1.50;;;;;;;7.93;81.63;97146.31;6177909;23;20434;-95
2023/11/25 07:22:15;;;;;;;2.13;1.05;;;;;;;7.72;82.38;97143.34;6176136;23;20496;-93
2023/11/25 07:24:42;;;;;;;3.47;2.42;;;;;;;7.93;81.63;97156.22;6200306;23;20024;-95
2023/11/25 07:27:10;;;;;;;4.25;2.83;;;;;;;8.06;81.43;97168.78;6175737;23;20027;-93
2023/11/25 07:29:36;;;;;;;4.57;3.13;;;;;;;8.10;81.35;97170.53;6176223;23;20350;-94
2023/11/25 07:32:02;;;;;;;2.72;1.77;;;;;;;7.82;80.29;97142.28;6175794;23;20004;-92
2023/11/25 07:34:30;;;;;;;1.48;0.95;;;;;;;7.91;80.84;97151.19;6174781;23;20000;-91
2023/11/25 07:36:56;;;;;;;1.80;1.10;;;;;;;7.67;81.11;97144.25;6199747;23;20058;-94
2023/11/25 07:39:23;;;;;;;2.30;1.42;;;;;;;7.77;81.84;97158.50;6176216;23;19999;-95
2023/11/25 07:41:54;;;;;;;2.35;1.25;;;;;;;7.86;82.72;97159.34;6177357;23;20004;-93
2023/11/25 07:44:24;;;;;;;2.30;1.60;;;;;;;7.89;81.98;97156.06;6180542;23;20004;-95
2023/11/25 07:46:50;;;;;;;8.27;3.58;;;;;;;7.88;80.81;97141.06;6179995;23;20000;-94
2023/11/25 07:49:18;;;;;;;11.07;6.43;;;;;;;7.90;80.04;97142.34;6176239;23;20388;-93
2023/11/25 07:51:48;;;;;;;3.22;2.13;;;;;;;7.89;80.66;97158.75;6174104;23;20015;-93
2023/11/25 07:54:14;;;;;;;12.95;4.53;;;;;;;7.81;80.52;97149.53;6175107;23;20004;-94
2023/11/25 07:56:40;;;;;;;4.03;2.78;;;;;;;7.71;80.24;97139.06;6176128;23;19996;-95
2023/11/25 07:59:06;;;;;;;2.28;1.50;;;;;;;7.73;81.62;97155.63;6176020;23;20007;-93
2023/11/25 08:01:34;;;;;;;2.65;1.98;;;;;;;7.61;81.76;97140.09;6175823;23;20019;-94
2023/11/25 08:04:01;;;;;;;5.60;4.00;;;;;;;7.81;81.53;97154.13;6176869;23;20000;-94
2023/11/25 08:06:29;;;;;;;7.88;5.50;;;;;;;7.83;80.60;97157.28;6201237;23;20000;-94
2023/11/25 08:08:55;;;;;;;6.60;3.30;;;;;;;7.84;79.52;97158.84;6201092;23;20009;-92
2023/11/25 08:11:25;;;;;;;11.40;6.53;;;;;;;8.00;79.64;97181.50;6175628;23;20000;-93
2023/11/25 08:13:51;;;;;;;6.55;4.07;;;;;;;7.99;79.32;97163.03;6174751;23;20004;-93
2023/11/25 08:16:18;;;;;;;7.22;2.42;;;;;;;8.07;79.24;97183.75;6173739;23;20075;-92
2023/11/25 08:18:47;;;;;;;4.40;2.60;;;;;;;7.99;79.43;97176.44;6200186;23;19999;-92
2023/11/25 08:21:13;;;;;;;2.60;1.63;;;;;;;7.85;79.28;97166.59;6174836;23;20029;-93
2023/11/25 08:23:45;;;;;;;4.13;2.60;;;;;;;7.77;81.24;97145.91;6175455;23;20008;-94
2023/11/25 08:26:25;;;;;;;2.25;1.42;;;;;;;8.02;80.53;97181.22;6176282;23;20015;-94
2023/11/25 08:28:51;;;;;;;9.27;4.35;;;;;;;7.96;79.54;97169.03;6175452;23;20443;-95
2023/11/25 08:31:17;;;;;;;4.22;2.30;;;;;;;7.92;78.45;97176.88;6174181;23;20401;-93
2023/11/25 08:33:43;;;;;;;3.00;1.88;;;;;;;7.83;78.99;97159.97;6177009;23;20004;-94
2023/11/25 08:36:09;;;;;;;5.88;3.22;;;;;;;7.74;78.98;97145.69;6174808;23;20322;-96
2023/11/25 08:38:35;;;;;;;3.15;1.92;;;;;;;7.78;79.37;97163.56;6176055;23;20004;-93
2023/11/25 08:41:02;;;;;;;3.55;1.63;;;;;;;7.73;79.82;97170.91;6200308;23;19996;-93
2023/11/25 08:43:40;;;;;;;3.83;2.60;;;;;;;7.85;79.10;97177.31;6175765;23;20004;-94
2023/11/25 08:46:06;;;;;;;4.53;2.45;;;;;;;7.76;79.05;97164.94;6201524;23;20008;-93
2023/11/25 08:48:31;;;;;;;3.70;1.95;;;;;;;7.73;77.82;97147.59;6201201;23;20422;-94
2023/11/25 08:51:00;;;;;;;5.70;2.75;;;;;;;7.63;78.20;97155.88;6176083;23;20008;-92
2023/11/25 08:53:29;;;;;;;3.95;1.83;;;;;;;7.49;78.71;97155.91;6176679;23;20431;-95
2023/11/25 08:55:55;;;;;;;5.25;3.65;;;;;;;7.64;79.13;97173.53;6176275;23;20023;-94
2023/11/25 08:58:29;;;;;;;11.27;5.60;;;;;;;7.59;78.07;97170.97;6174682;23;20352;-94
2023/11/25 09:00:55;;;;;;;8.57;3.90;;;;;;;7.51;78.29;97159.06;6203046;23;20075;-94
2023/11/25 09:03:43;;;;;;;3.55;2.22;;;;;;;7.30;79.14;97145.38;6177807;23;20175;-93
2023/11/25 09:06:09;;;;;;;8.00;3.42;;;;;;;7.44;78.96;97175.56;6204219;23;20000;-94
2023/11/25 09:08:35;;;;;;;3.67;2.67;;;;;;;7.25;78.76;97169.56;6176145;23;20087;-94
2023/11/25 09:11:01;;;;;;;3.03;2.10;;;;;;;7.22;79.73;97162.94;6175884;23;20355;-95
2023/11/25 09:13:27;;;;;;;5.28;2.50;;;;;;;7.12;79.31;97160.50;6176640;23;20417;-93
2023/11/25 09:15:55;;;;;;;3.22;1.92;;;;;;;7.27;79.65;97162.81;6177827;23;20023;-95
2023/11/25 09:18:44;;;;;;;4.35;2.85;;;;;;;7.22;79.20;97167.50;6180995;23;19988;-95
2023/11/25 09:21:10;;;;;;;3.70;2.58;;;;;;;7.07;77.70;97160.59;6219473;23;20004;-96
2023/11/25 09:24:21;;;;;;;6.78;3.85;;;;;;;7.02;77.91;97158.03;6179002;22;20007;-95
2023/11/25 09:27:08;;;;;;;10.40;5.10;;;;;;;6.93;77.36;97182.03;6114541;23;20010;-93
2023/11/25 09:29:36;;;;;;;8.18;4.30;;;;;;;6.82;79.25;97173.38;6166297;23;20091;-93
2023/11/25 09:32:02;;;;;;;14.65;8.20;;;;;;;6.73;77.60;97169.06;6176385;23;20003;-94
2023/11/25 09:34:43;;;;;;;4.78;2.45;;;;;;;6.52;79.66;97165.97;6175873;23;20003;-94
2023/11/25 09:37:11;;;;;;;11.43;7.53;;;;;;;6.57;79.24;97152.50;6174612;23;20004;-95
2023/11/25 09:39:39;;;;;;;8.15;3.58;;;;;;;6.61;78.09;97172.22;6176223;23;20005;-93
2023/11/25 09:42:08;;;;;;;9.18;4.78;;;;;;;6.52;77.49;97161.41;6173570;23;20000;-93
2023/11/25 09:44:37;;;;;;;11.43;4.57;;;;;;;6.67;78.72;97181.72;6200962;23;20075;-94
2023/11/25 09:47:03;;;;;;;4.15;2.70;;;;;;;6.47;77.63;97165.00;6174467;23;20015;-94
2023/11/25 09:49:29;;;;;;;5.63;2.78;;;;;;;6.44;78.39;97170.91;6173552;23;20008;-93
2023/11/25 09:51:57;;;;;;;8.00;3.15;;;;;;;6.46;79.31;97173.28;6175659;23;20004;-96
2023/11/25 09:54:23;;;;;;;4.55;1.92;;;;;;;6.40;78.83;97166.47;6176566;23;20000;-94
2023/11/25 09:56:52;;;;;;;4.53;2.63;;;;;;;6.45;78.95;97164.50;6174164;23;20008;-95
2023/11/25 09:59:18;;;;;;;2.50;1.67;;;;;;;6.50;76.76;97171.63;6175600;23;20004;-94
2023/11/25 10:01:48;;;;;;;12.07;4.05;;;;;;;6.36;76.95;97173.47;6174738;23;20405;-95
2023/11/25 10:04:16;;;;;;;9.77;2.92;;;;;;;6.30;77.74;97174.66;6175943;23;20096;-93
2023/11/25 10:06:42;;;;;;;7.55;3.13;;;;;;;6.25;77.19;97160.31;6173356;23;20008;-94
2023/11/25 10:09:11;;;;;;;3.33;2.20;;;;;;;6.18;78.35;97167.09;6174164;23;20205;-95
2023/11/25 10:11:39;;;;;;;4.72;2.58;;;;;;;6.21;78.58;97171.88;6177453;23;20085;-93
2023/11/25 10:14:37;;;;;;;3.22;2.42;;;;;;;6.14;78.59;97150.06;6178422;23;20020;-92
2023/11/25 10:17:18;;;;;;;7.07;4.40;;;;;;;6.30;77.50;97164.75;6211316;23;20011;-91
2023/11/25 10:19:57;;;;;;;3.60;2.47;;;;;;;6.32;77.10;97156.44;6200720;23;20000;-91
2023/11/25 10:22:28;;;;;;;4.38;2.20;;;;;;;6.23;76.98;97170.50;6226999;23;20071;-91
2023/11/25 10:24:55;;;;;;;2.72;1.92;;;;;;;6.18;76.11;97159.88;6202438;23;20004;-92
2023/11/25 10:27:21;;;;;;;5.50;2.78;;;;;;;6.22;75.82;97168.88;6175006;23;20000;-92
2023/11/25 10:29:49;;;;;;;4.68;3.05;;;;;;;6.20;75.96;97163.03;6174355;23;20011;-92
2023/11/25 10:32:14;;;;;;;4.15;2.15;;;;;;;6.05;75.09;97147.28;6175171;23;20054;-91
2023/11/25 10:34:40;;;;;;;5.32;2.22;;;;;;;6.02;74.99;97146.00;6175573;23;20000;-91
2023/11/25 10:37:06;;;;;;;2.28;1.67;;;;;;;6.10;74.21;97165.91;6174959;23;20000;-91
2023/11/25 10:39:33;;;;;;;2.28;1.63;;;;;;;5.58;75.79;97128.56;6175809;23;19996;-92
2023/11/25 10:41:58;;;;;;;6.03;3.45;;;;;;;5.77;76.84;97162.41;6177082;23;20035;-92
2023/11/25 10:44:53;;;;;;;3.72;2.17;;;;;;;5.73;76.61;97151.53;6175679;23;20024;-91
2023/11/25 10:47:51;;;;;;;6.22;2.65;;;;;;;5.75;78.43;97154.72;6203681;23;20023;-91
2023/11/25 10:50:17;;;;;;;6.40;2.08;;;;;;;5.60;77.96;97136.25;6136462;23;20067;-91
2023/11/25 10:52:46;;;;;;;4.55;2.35;;;;;;;5.42;76.59;97135.19;6173666;23;20100;-91
2023/11/25 10:55:11;;;;;;;3.22;2.20;;;;;;;5.47;75.82;97125.22;6174094;23;20068;-91
2023/11/25 10:57:37;;;;;;;2.78;1.20;;;;;;;5.46;74.92;97134.31;6176324;23;20004;-90
2023/11/25 11:00:17;;;;;;;2.70;1.80;;;;;;;5.27;77.59;97136.19;6176194;23;20346;-92
2023/11/25 11:02:44;;;;;;;4.65;2.35;;;;;;;5.24;75.24;97139.47;6183126;23;19990;-92
2023/11/25 11:05:35;;;;;;;7.93;3.22;;;;;;;5.23;75.18;97128.00;6180002;23;20035;-91
2023/11/25 11:08:35;;;;;;;4.43;2.55;;;;;;;4.65;76.61;97107.69;6206777;23;20383;-92
2023/11/25 11:11:12;;;;;;;2.45;1.83;;;;;;;4.75;78.52;97133.44;6215832;23;20011;-93
2023/11/25 11:13:42;;;;;;;6.60;3.80;;;;;;;4.64;76.94;97127.41;6175012;23;20000;-92
2023/11/25 11:16:21;;;;;;;3.40;2.35;;;;;;;4.72;80.57;97130.56;6170338;23;20018;-90
2023/11/25 11:18:46;;;;;;;7.43;4.05;;;;;;;4.98;77.97;97147.81;6171419;23;20426;-90
2023/11/25 11:21:14;;;;;;;6.00;3.15;;;;;;;4.70;78.31;97125.50;6169444;23;19999;-90
2023/11/25 11:23:40;;;;;;;7.38;3.30;;;;;;;4.70;80.18;97130.03;6196938;23;20011;-90
2023/11/25 11:26:37;;;;;;;6.13;2.83;;;;;;;4.91;77.55;97149.25;6170678;23;20004;-87
2023/11/25 11:29:06;;;;;;;5.22;2.80;;;;;;;4.96;77.27;97135.81;6219858;23;20020;-86
2023/11/25 11:31:51;;;;;;;4.63;2.55;;;;;;;4.98;74.19;97147.00;6194991;23;20000;-88
2023/11/25 11:34:17;;;;;;;3.95;2.40;;;;;;;4.70;75.78;97148.69;6219348;23;20004;-89
2023/11/25 11:36:42;;;;;;;4.05;2.45;;;;;;;4.73;75.90;97148.13;6169904;23;20072;-88
2023/11/25 11:39:11;;;;;;;4.55;3.05;;;;;;;4.61;76.27;97136.00;6169678;23;20012;-90
2023/11/25 11:41:39;;;;;;;3.83;2.50;;;;;;;4.42;77.86;97129.81;6171512;23;20027;-89
2023/11/25 11:44:07;;;;;;;3.47;2.67;;;;;;;4.57;76.84;97126.19;6170240;23;20027;-86